sensor_id;sensor_type;location;lat;lon;timestamp;P1;durP1;ratioP1;P2;durP2;ratioP2
51006;SDS011;37034;47.886;-3.904;2022-08-19T00:01:28;7.60;;;3.55;;
51006;SDS011;37034;47.886;-3.904;2022-08-19T00:03:55;14.90;;;4.65;;
51006;SDS011;37034;47.886;-3.904;2022-08-19T00:06:25;10.70;;;3.85;;
51006;SDS011;37034;47.886;-3.904;2022-08-19T00:08:51;11.43;;;4.70;;
51006;SDS011;37034;47.886;-3.904;2022-08-19T00:11:17;15.82;;;4.60;;
51006;SDS011;37034;47.886;-3.904;2022-08-19T00:13:44;11.25;;;4.10;;
51006;SDS011;37034;47.886;-3.904;2022-08-19T00:16:13;11.07;;;4.38;;
51006;SDS011;37034;47.886;-3.904;2022-08-19T00:18:40;12.10;;;3.80;;
51006;SDS011;37034;47.886;-3.904;2022-08-19T00:21:06;14.98;;;4.60;;
51006;SDS011;37034;47.886;-3.904;2022-08-19T00:23:32;9.35;;;4.38;;
51006;SDS011;37034;47.886;-3.904;2022-08-19T00:25:59;12.27;;;4.50;;
51006;SDS011;37034;47.886;-3.904;2022-08-19T00:28:25;10.48;;;4.82;;
51006;SDS011;37034;47.886;-3.904;2022-08-19T00:30:51;15.00;;;4.82;;
51006;SDS011;37034;47.886;-3.904;2022-08-19T00:35:44;13.10;;;4.10;;
51006;SDS011;37034;47.886;-3.904;2022-08-19T00:38:09;15.38;;;4.68;;
51006;SDS011;37034;47.886;-3.904;2022-08-19T00:40:35;10.20;;;3.80;;
51006;SDS011;37034;47.886;-3.904;2022-08-19T00:43:01;12.75;;;3.85;;
51006;SDS011;37034;47.886;-3.904;2022-08-19T00:45:32;20.45;;;4.53;;
51006;SDS011;37034;47.886;-3.904;2022-08-19T00:48:01;17.75;;;4.63;;
51006;SDS011;37034;47.886;-3.904;2022-08-19T00:50:29;12.80;;;4.20;;
51006;SDS011;37034;47.886;-3.904;2022-08-19T00:55:23;15.25;;;4.20;;
51006;SDS011;37034;47.886;-3.904;2022-08-19T00:57:54;14.65;;;4.85;;
51006;SDS011;37034;47.886;-3.904;2022-08-19T01:00:26;12.05;;;4.60;;
51006;SDS011;37034;47.886;-3.904;2022-08-19T01:02:53;17.23;;;5.60;;
51006;SDS011;37034;47.886;-3.904;2022-08-19T01:05:20;16.23;;;4.13;;
51006;SDS011;37034;47.886;-3.904;2022-08-19T01:07:49;14.00;;;4.60;;
51006;SDS011;37034;47.886;-3.904;2022-08-19T01:10:16;19.92;;;5.40;;
51006;SDS011;37034;47.886;-3.904;2022-08-19T01:12:45;19.90;;;4.88;;
51006;SDS011;37034;47.886;-3.904;2022-08-19T01:15:14;16.65;;;4.47;;
51006;SDS011;37034;47.886;-3.904;2022-08-19T01:17:47;14.63;;;4.65;;
51006;SDS011;37034;47.886;-3.904;2022-08-19T01:25:13;14.48;;;5.50;;
51006;SDS011;37034;47.886;-3.904;2022-08-19T01:27:42;14.50;;;4.45;;
51006;SDS011;37034;47.886;-3.904;2022-08-19T01:30:11;16.77;;;4.53;;
51006;SDS011;37034;47.886;-3.904;2022-08-19T01:32:39;11.45;;;4.22;;
51006;SDS011;37034;47.886;-3.904;2022-08-19T01:35:05;14.20;;;5.35;;
51006;SDS011;37034;47.886;-3.904;2022-08-19T01:37:41;13.20;;;4.45;;
51006;SDS011;37034;47.886;-3.904;2022-08-19T01:42:33;17.05;;;4.60;;
51006;SDS011;37034;47.886;-3.904;2022-08-19T01:45:00;17.15;;;4.10;;
51006;SDS011;37034;47.886;-3.904;2022-08-19T01:47:25;18.10;;;5.53;;
51006;SDS011;37034;47.886;-3.904;2022-08-19T01:49:51;10.88;;;3.80;;
51006;SDS011;37034;47.886;-3.904;2022-08-19T01:52:17;15.10;;;4.85;;
51006;SDS011;37034;47.886;-3.904;2022-08-19T01:54:42;20.15;;;4.55;;
51006;SDS011;37034;47.886;-3.904;2022-08-19T01:57:08;20.63;;;5.05;;
51006;SDS011;37034;47.886;-3.904;2022-08-19T01:59:37;13.52;;;4.25;;
51006;SDS011;37034;47.886;-3.904;2022-08-19T02:02:05;16.23;;;4.60;;
51006;SDS011;37034;47.886;-3.904;2022-08-19T02:04:33;13.80;;;4.22;;
51006;SDS011;37034;47.886;-3.904;2022-08-19T02:06:59;13.95;;;4.80;;
51006;SDS011;37034;47.886;-3.904;2022-08-19T02:09:25;17.33;;;4.47;;
51006;SDS011;37034;47.886;-3.904;2022-08-19T02:11:51;10.18;;;4.05;;
51006;SDS011;37034;47.886;-3.904;2022-08-19T02:14:16;13.70;;;4.07;;
51006;SDS011;37034;47.886;-3.904;2022-08-19T02:16:42;16.15;;;4.70;;
51006;SDS011;37034;47.886;-3.904;2022-08-19T02:19:08;14.65;;;4.47;;
51006;SDS011;37034;47.886;-3.904;2022-08-19T02:21:35;18.00;;;4.50;;
51006;SDS011;37034;47.886;-3.904;2022-08-19T02:24:01;19.88;;;5.85;;
51006;SDS011;37034;47.886;-3.904;2022-08-19T02:26:27;12.90;;;4.93;;
51006;SDS011;37034;47.886;-3.904;2022-08-19T02:28:53;15.32;;;4.68;;
51006;SDS011;37034;47.886;-3.904;2022-08-19T02:31:20;17.83;;;4.40;;
51006;SDS011;37034;47.886;-3.904;2022-08-19T02:33:47;13.68;;;4.95;;
51006;SDS011;37034;47.886;-3.904;2022-08-19T02:36:14;17.58;;;4.97;;
51006;SDS011;37034;47.886;-3.904;2022-08-19T02:38:40;19.63;;;5.35;;
51006;SDS011;37034;47.886;-3.904;2022-08-19T02:41:09;17.52;;;5.45;;
51006;SDS011;37034;47.886;-3.904;2022-08-19T02:43:37;16.38;;;5.05;;
51006;SDS011;37034;47.886;-3.904;2022-08-19T02:46:18;20.23;;;5.25;;
51006;SDS011;37034;47.886;-3.904;2022-08-19T02:48:49;18.45;;;4.97;;
51006;SDS011;37034;47.886;-3.904;2022-08-19T02:51:27;13.45;;;3.78;;
51006;SDS011;37034;47.886;-3.904;2022-08-19T02:53:57;18.48;;;5.65;;
51006;SDS011;37034;47.886;-3.904;2022-08-19T02:56:24;16.73;;;4.80;;
51006;SDS011;37034;47.886;-3.904;2022-08-19T02:58:52;20.38;;;4.78;;
51006;SDS011;37034;47.886;-3.904;2022-08-19T03:01:29;18.45;;;5.40;;
51006;SDS011;37034;47.886;-3.904;2022-08-19T03:03:56;17.92;;;4.97;;
51006;SDS011;37034;47.886;-3.904;2022-08-19T03:06:24;16.80;;;4.85;;
51006;SDS011;37034;47.886;-3.904;2022-08-19T03:08:50;20.25;;;5.40;;
51006;SDS011;37034;47.886;-3.904;2022-08-19T03:11:28;25.52;;;5.72;;
51006;SDS011;37034;47.886;-3.904;2022-08-19T03:13:55;17.10;;;5.03;;
51006;SDS011;37034;47.886;-3.904;2022-08-19T03:18:48;17.60;;;4.68;;
51006;SDS011;37034;47.886;-3.904;2022-08-19T03:21:19;17.80;;;4.72;;
51006;SDS011;37034;47.886;-3.904;2022-08-19T03:23:47;17.92;;;4.40;;
51006;SDS011;37034;47.886;-3.904;2022-08-19T03:26:13;19.10;;;5.18;;
51006;SDS011;37034;47.886;-3.904;2022-08-19T03:28:40;16.77;;;4.70;;
51006;SDS011;37034;47.886;-3.904;2022-08-19T03:31:08;16.52;;;4.85;;
51006;SDS011;37034;47.886;-3.904;2022-08-19T03:33:38;22.13;;;5.57;;
51006;SDS011;37034;47.886;-3.904;2022-08-19T03:36:09;24.13;;;4.82;;
51006;SDS011;37034;47.886;-3.904;2022-08-19T03:38:38;24.95;;;6.43;;
51006;SDS011;37034;47.886;-3.904;2022-08-19T03:41:09;18.80;;;4.97;;
51006;SDS011;37034;47.886;-3.904;2022-08-19T03:43:38;19.50;;;5.43;;
51006;SDS011;37034;47.886;-3.904;2022-08-19T03:46:06;21.33;;;4.78;;
51006;SDS011;37034;47.886;-3.904;2022-08-19T03:48:33;19.95;;;5.40;;
51006;SDS011;37034;47.886;-3.904;2022-08-19T03:51:01;20.27;;;5.40;;
51006;SDS011;37034;47.886;-3.904;2022-08-19T03:53:28;23.45;;;4.95;;
51006;SDS011;37034;47.886;-3.904;2022-08-19T03:55:55;21.25;;;5.20;;
51006;SDS011;37034;47.886;-3.904;2022-08-19T04:00:47;22.23;;;5.38;;
51006;SDS011;37034;47.886;-3.904;2022-08-19T04:03:13;17.88;;;4.30;;
51006;SDS011;37034;47.886;-3.904;2022-08-19T04:05:39;26.85;;;5.40;;
51006;SDS011;37034;47.886;-3.904;2022-08-19T04:08:04;22.13;;;4.32;;
51006;SDS011;37034;47.886;-3.904;2022-08-19T04:10:31;17.35;;;3.97;;
51006;SDS011;37034;47.886;-3.904;2022-08-19T04:13:03;19.70;;;4.32;;
51006;SDS011;37034;47.886;-3.904;2022-08-19T04:15:31;27.52;;;5.93;;
51006;SDS011;37034;47.886;-3.904;2022-08-19T04:18:03;22.75;;;4.68;;
51006;SDS011;37034;47.886;-3.904;2022-08-19T04:20:32;24.02;;;4.25;;
51006;SDS011;37034;47.886;-3.904;2022-08-19T04:23:03;16.33;;;4.45;;
51006;SDS011;37034;47.886;-3.904;2022-08-19T04:25:34;23.13;;;4.95;;
51006;SDS011;37034;47.886;-3.904;2022-08-19T04:28:04;19.27;;;4.30;;
51006;SDS011;37034;47.886;-3.904;2022-08-19T04:30:30;20.60;;;4.93;;
51006;SDS011;37034;47.886;-3.904;2022-08-19T04:32:55;21.65;;;5.18;;
51006;SDS011;37034;47.886;-3.904;2022-08-19T04:35:21;22.27;;;4.97;;
51006;SDS011;37034;47.886;-3.904;2022-08-19T04:37:47;20.65;;;4.68;;
51006;SDS011;37034;47.886;-3.904;2022-08-19T04:40:13;29.38;;;4.97;;
51006;SDS011;37034;47.886;-3.904;2022-08-19T04:42:57;18.15;;;4.78;;
51006;SDS011;37034;47.886;-3.904;2022-08-19T04:45:23;25.13;;;5.18;;
51006;SDS011;37034;47.886;-3.904;2022-08-19T04:47:49;24.77;;;4.40;;
51006;SDS011;37034;47.886;-3.904;2022-08-19T04:50:14;21.73;;;4.32;;
51006;SDS011;37034;47.886;-3.904;2022-08-19T04:52:40;21.40;;;5.55;;
51006;SDS011;37034;47.886;-3.904;2022-08-19T04:55:08;24.05;;;5.60;;
51006;SDS011;37034;47.886;-3.904;2022-08-19T04:57:35;23.77;;;5.20;;
51006;SDS011;37034;47.886;-3.904;2022-08-19T05:00:05;23.23;;;4.82;;
51006;SDS011;37034;47.886;-3.904;2022-08-19T05:02:32;21.80;;;5.10;;
51006;SDS011;37034;47.886;-3.904;2022-08-19T05:04:58;16.92;;;4.65;;
51006;SDS011;37034;47.886;-3.904;2022-08-19T05:07:25;20.17;;;4.55;;
51006;SDS011;37034;47.886;-3.904;2022-08-19T05:09:51;32.08;;;6.88;;
51006;SDS011;37034;47.886;-3.904;2022-08-19T05:12:16;23.60;;;5.10;;
51006;SDS011;37034;47.886;-3.904;2022-08-19T05:14:42;21.17;;;4.47;;
51006;SDS011;37034;47.886;-3.904;2022-08-19T05:17:10;22.50;;;4.55;;
51006;SDS011;37034;47.886;-3.904;2022-08-19T05:19:36;29.10;;;5.38;;
51006;SDS011;37034;47.886;-3.904;2022-08-19T05:22:20;28.83;;;5.53;;
51006;SDS011;37034;47.886;-3.904;2022-08-19T05:24:59;29.98;;;5.30;;
51006;SDS011;37034;47.886;-3.904;2022-08-19T05:27:32;25.35;;;5.43;;
51006;SDS011;37034;47.886;-3.904;2022-08-19T05:29:58;21.27;;;5.03;;
51006;SDS011;37034;47.886;-3.904;2022-08-19T05:32:25;22.15;;;4.68;;
51006;SDS011;37034;47.886;-3.904;2022-08-19T05:34:51;27.50;;;4.68;;
51006;SDS011;37034;47.886;-3.904;2022-08-19T05:37:17;22.13;;;4.82;;
51006;SDS011;37034;47.886;-3.904;2022-08-19T05:39:42;26.73;;;5.13;;
51006;SDS011;37034;47.886;-3.904;2022-08-19T05:42:09;26.45;;;4.95;;
51006;SDS011;37034;47.886;-3.904;2022-08-19T05:44:40;27.33;;;5.28;;
51006;SDS011;37034;47.886;-3.904;2022-08-19T05:47:10;26.48;;;4.57;;
51006;SDS011;37034;47.886;-3.904;2022-08-19T05:49:37;24.05;;;4.63;;
51006;SDS011;37034;47.886;-3.904;2022-08-19T05:52:04;24.98;;;4.97;;
51006;SDS011;37034;47.886;-3.904;2022-08-19T05:54:31;18.08;;;3.75;;
51006;SDS011;37034;47.886;-3.904;2022-08-19T05:56:58;29.13;;;6.05;;
51006;SDS011;37034;47.886;-3.904;2022-08-19T05:59:25;25.27;;;4.60;;
51006;SDS011;37034;47.886;-3.904;2022-08-19T06:01:53;20.55;;;4.45;;
51006;SDS011;37034;47.886;-3.904;2022-08-19T06:04:21;21.15;;;4.15;;
51006;SDS011;37034;47.886;-3.904;2022-08-19T06:09:16;32.67;;;5.03;;
51006;SDS011;37034;47.886;-3.904;2022-08-19T06:11:44;22.63;;;4.82;;
51006;SDS011;37034;47.886;-3.904;2022-08-19T06:14:16;23.50;;;4.35;;
51006;SDS011;37034;47.886;-3.904;2022-08-19T06:16:45;22.95;;;4.68;;
51006;SDS011;37034;47.886;-3.904;2022-08-19T06:19:13;31.02;;;4.18;;
51006;SDS011;37034;47.886;-3.904;2022-08-19T06:21:41;26.50;;;5.75;;
51006;SDS011;37034;47.886;-3.904;2022-08-19T06:24:11;12.55;;;2.75;;
51006;SDS011;37034;47.886;-3.904;2022-08-19T06:26:43;22.75;;;4.50;;
51006;SDS011;37034;47.886;-3.904;2022-08-19T06:29:10;16.23;;;3.38;;
51006;SDS011;37034;47.886;-3.904;2022-08-19T06:31:40;17.75;;;3.17;;
51006;SDS011;37034;47.886;-3.904;2022-08-19T06:34:08;13.65;;;3.10;;
51006;SDS011;37034;47.886;-3.904;2022-08-19T06:36:40;16.60;;;3.17;;
51006;SDS011;37034;47.886;-3.904;2022-08-19T06:39:15;15.05;;;3.17;;
51006;SDS011;37034;47.886;-3.904;2022-08-19T06:41:44;11.07;;;2.65;;
51006;SDS011;37034;47.886;-3.904;2022-08-19T06:44:12;16.85;;;3.30;;
51006;SDS011;37034;47.886;-3.904;2022-08-19T06:46:38;15.10;;;3.42;;
51006;SDS011;37034;47.886;-3.904;2022-08-19T06:49:06;12.88;;;3.10;;
51006;SDS011;37034;47.886;-3.904;2022-08-19T06:51:34;18.63;;;3.70;;
51006;SDS011;37034;47.886;-3.904;2022-08-19T06:54:00;11.30;;;2.55;;
51006;SDS011;37034;47.886;-3.904;2022-08-19T06:59:02;10.90;;;2.30;;
51006;SDS011;37034;47.886;-3.904;2022-08-19T07:01:29;13.98;;;3.08;;
51006;SDS011;37034;47.886;-3.904;2022-08-19T07:03:59;18.75;;;3.22;;
51006;SDS011;37034;47.886;-3.904;2022-08-19T07:06:26;17.90;;;3.55;;
51006;SDS011;37034;47.886;-3.904;2022-08-19T07:08:52;16.88;;;3.15;;
51006;SDS011;37034;47.886;-3.904;2022-08-19T07:11:17;19.85;;;3.35;;
51006;SDS011;37034;47.886;-3.904;2022-08-19T07:16:14;16.40;;;3.83;;
51006;SDS011;37034;47.886;-3.904;2022-08-19T07:18:42;17.08;;;3.15;;
51006;SDS011;37034;47.886;-3.904;2022-08-19T07:21:12;16.35;;;3.05;;
51006;SDS011;37034;47.886;-3.904;2022-08-19T07:23:40;14.18;;;3.15;;
51006;SDS011;37034;47.886;-3.904;2022-08-19T07:26:10;17.95;;;3.72;;
51006;SDS011;37034;47.886;-3.904;2022-08-19T07:28:41;16.23;;;3.42;;
51006;SDS011;37034;47.886;-3.904;2022-08-19T07:31:09;21.35;;;3.63;;
51006;SDS011;37034;47.886;-3.904;2022-08-19T07:33:37;22.23;;;4.32;;
51006;SDS011;37034;47.886;-3.904;2022-08-19T07:36:04;16.38;;;3.47;;
51006;SDS011;37034;47.886;-3.904;2022-08-19T07:38:31;21.92;;;3.00;;
51006;SDS011;37034;47.886;-3.904;2022-08-19T07:40:58;12.48;;;3.17;;
51006;SDS011;37034;47.886;-3.904;2022-08-19T07:43:23;22.35;;;3.63;;
51006;SDS011;37034;47.886;-3.904;2022-08-19T07:48:24;19.13;;;3.95;;
51006;SDS011;37034;47.886;-3.904;2022-08-19T07:50:55;23.10;;;4.30;;
51006;SDS011;37034;47.886;-3.904;2022-08-19T07:53:22;14.95;;;3.70;;
51006;SDS011;37034;47.886;-3.904;2022-08-19T07:58:15;17.85;;;3.65;;
51006;SDS011;37034;47.886;-3.904;2022-08-19T08:00:44;16.85;;;2.80;;
51006;SDS011;37034;47.886;-3.904;2022-08-19T08:03:12;14.00;;;2.95;;
51006;SDS011;37034;47.886;-3.904;2022-08-19T08:05:40;18.90;;;3.00;;
51006;SDS011;37034;47.886;-3.904;2022-08-19T08:08:25;16.52;;;3.58;;
51006;SDS011;37034;47.886;-3.904;2022-08-19T08:11:11;17.98;;;3.15;;
51006;SDS011;37034;47.886;-3.904;2022-08-19T08:13:37;21.20;;;3.25;;
51006;SDS011;37034;47.886;-3.904;2022-08-19T08:16:03;18.73;;;3.42;;
51006;SDS011;37034;47.886;-3.904;2022-08-19T08:18:29;17.13;;;2.67;;
51006;SDS011;37034;47.886;-3.904;2022-08-19T08:20:56;15.63;;;2.55;;
51006;SDS011;37034;47.886;-3.904;2022-08-19T08:25:49;16.73;;;3.22;;
51006;SDS011;37034;47.886;-3.904;2022-08-19T08:28:20;14.98;;;2.72;;
51006;SDS011;37034;47.886;-3.904;2022-08-19T08:33:12;11.63;;;2.72;;
51006;SDS011;37034;47.886;-3.904;2022-08-19T08:35:41;16.85;;;3.00;;
51006;SDS011;37034;47.886;-3.904;2022-08-19T08:38:07;13.02;;;2.95;;
51006;SDS011;37034;47.886;-3.904;2022-08-19T08:40:42;19.15;;;2.92;;
51006;SDS011;37034;47.886;-3.904;2022-08-19T08:43:18;15.57;;;2.33;;
51006;SDS011;37034;47.886;-3.904;2022-08-19T08:45:48;13.23;;;2.33;;
51006;SDS011;37034;47.886;-3.904;2022-08-19T08:48:54;13.73;;;2.75;;
51006;SDS011;37034;47.886;-3.904;2022-08-19T08:51:50;11.80;;;1.80;;
51006;SDS011;37034;47.886;-3.904;2022-08-19T08:54:20;10.65;;;1.90;;
51006;SDS011;37034;47.886;-3.904;2022-08-19T08:56:53;9.77;;;2.53;;
51006;SDS011;37034;47.886;-3.904;2022-08-19T08:59:24;12.40;;;2.78;;
51006;SDS011;37034;47.886;-3.904;2022-08-19T09:01:57;11.75;;;2.00;;
51006;SDS011;37034;47.886;-3.904;2022-08-19T09:04:23;14.40;;;2.47;;
51006;SDS011;37034;47.886;-3.904;2022-08-19T09:06:55;12.48;;;2.47;;
51006;SDS011;37034;47.886;-3.904;2022-08-19T09:09:34;15.52;;;2.92;;
51006;SDS011;37034;47.886;-3.904;2022-08-19T09:17:13;18.38;;;2.65;;
51006;SDS011;37034;47.886;-3.904;2022-08-19T09:19:53;12.07;;;2.72;;
51006;SDS011;37034;47.886;-3.904;2022-08-19T09:22:21;9.75;;;2.22;;
51006;SDS011;37034;47.886;-3.904;2022-08-19T09:24:49;10.25;;;1.75;;
51006;SDS011;37034;47.886;-3.904;2022-08-19T09:27:17;10.45;;;1.98;;
51006;SDS011;37034;47.886;-3.904;2022-08-19T09:29:43;14.90;;;2.92;;
51006;SDS011;37034;47.886;-3.904;2022-08-19T09:32:09;11.68;;;2.50;;
51006;SDS011;37034;47.886;-3.904;2022-08-19T09:34:35;9.65;;;2.45;;
51006;SDS011;37034;47.886;-3.904;2022-08-19T09:37:01;10.57;;;2.42;;
51006;SDS011;37034;47.886;-3.904;2022-08-19T09:39:27;16.30;;;2.80;;
51006;SDS011;37034;47.886;-3.904;2022-08-19T09:41:55;8.65;;;2.58;;
51006;SDS011;37034;47.886;-3.904;2022-08-19T09:44:21;8.88;;;2.25;;
51006;SDS011;37034;47.886;-3.904;2022-08-19T09:46:46;11.77;;;2.25;;
51006;SDS011;37034;47.886;-3.904;2022-08-19T09:49:12;11.20;;;2.47;;
51006;SDS011;37034;47.886;-3.904;2022-08-19T09:51:37;12.95;;;2.33;;
51006;SDS011;37034;47.886;-3.904;2022-08-19T09:54:04;13.88;;;2.10;;
51006;SDS011;37034;47.886;-3.904;2022-08-19T09:56:30;14.32;;;3.40;;
51006;SDS011;37034;47.886;-3.904;2022-08-19T09:58:59;11.02;;;2.28;;
51006;SDS011;37034;47.886;-3.904;2022-08-19T10:01:27;12.57;;;2.08;;
51006;SDS011;37034;47.886;-3.904;2022-08-19T10:03:55;14.75;;;3.03;;
51006;SDS011;37034;47.886;-3.904;2022-08-19T10:06:22;13.90;;;2.85;;
51006;SDS011;37034;47.886;-3.904;2022-08-19T10:08:50;17.05;;;3.38;;
51006;SDS011;37034;47.886;-3.904;2022-08-19T10:11:16;10.65;;;2.67;;
51006;SDS011;37034;47.886;-3.904;2022-08-19T10:13:43;14.13;;;2.67;;
51006;SDS011;37034;47.886;-3.904;2022-08-19T10:16:14;14.85;;;2.50;;
51006;SDS011;37034;47.886;-3.904;2022-08-19T10:18:43;11.68;;;2.70;;
51006;SDS011;37034;47.886;-3.904;2022-08-19T10:21:11;9.82;;;2.40;;
51006;SDS011;37034;47.886;-3.904;2022-08-19T10:23:44;10.48;;;2.35;;
51006;SDS011;37034;47.886;-3.904;2022-08-19T10:26:14;8.30;;;2.33;;
51006;SDS011;37034;47.886;-3.904;2022-08-19T10:28:43;8.38;;;2.15;;
51006;SDS011;37034;47.886;-3.904;2022-08-19T10:31:13;10.70;;;2.22;;
51006;SDS011;37034;47.886;-3.904;2022-08-19T10:33:41;11.43;;;2.13;;
51006;SDS011;37034;47.886;-3.904;2022-08-19T10:36:09;10.05;;;2.08;;
51006;SDS011;37034;47.886;-3.904;2022-08-19T10:38:40;13.20;;;3.97;;
51006;SDS011;37034;47.886;-3.904;2022-08-19T10:43:36;15.60;;;4.30;;
51006;SDS011;37034;47.886;-3.904;2022-08-19T10:46:03;10.70;;;3.78;;
51006;SDS011;37034;47.886;-3.904;2022-08-19T10:48:30;17.10;;;3.30;;
51006;SDS011;37034;47.886;-3.904;2022-08-19T10:50:57;11.80;;;4.57;;
51006;SDS011;37034;47.886;-3.904;2022-08-19T10:53:42;16.67;;;5.28;;
51006;SDS011;37034;47.886;-3.904;2022-08-19T10:56:07;13.77;;;4.10;;
51006;SDS011;37034;47.886;-3.904;2022-08-19T10:58:51;16.17;;;3.50;;
51006;SDS011;37034;47.886;-3.904;2022-08-19T11:01:17;14.70;;;3.70;;
51006;SDS011;37034;47.886;-3.904;2022-08-19T11:03:43;13.68;;;4.35;;
51006;SDS011;37034;47.886;-3.904;2022-08-19T11:06:10;10.50;;;2.90;;
51006;SDS011;37034;47.886;-3.904;2022-08-19T11:08:36;12.02;;;4.53;;
51006;SDS011;37034;47.886;-3.904;2022-08-19T11:11:03;7.40;;;3.00;;
51006;SDS011;37034;47.886;-3.904;2022-08-19T11:13:30;14.02;;;3.42;;
51006;SDS011;37034;47.886;-3.904;2022-08-19T11:15:59;10.20;;;2.92;;
51006;SDS011;37034;47.886;-3.904;2022-08-19T11:18:29;10.10;;;1.80;;
51006;SDS011;37034;47.886;-3.904;2022-08-19T11:21:04;11.27;;;2.67;;
51006;SDS011;37034;47.886;-3.904;2022-08-19T11:23:31;6.13;;;2.38;;
51006;SDS011;37034;47.886;-3.904;2022-08-19T11:25:57;7.47;;;2.85;;
51006;SDS011;37034;47.886;-3.904;2022-08-19T11:28:24;8.18;;;3.53;;
51006;SDS011;37034;47.886;-3.904;2022-08-19T11:30:50;8.73;;;3.72;;
51006;SDS011;37034;47.886;-3.904;2022-08-19T11:33:15;6.60;;;1.80;;
51006;SDS011;37034;47.886;-3.904;2022-08-19T11:35:41;10.38;;;1.80;;
51006;SDS011;37034;47.886;-3.904;2022-08-19T11:38:07;7.28;;;1.60;;
51006;SDS011;37034;47.886;-3.904;2022-08-19T11:40:32;6.65;;;1.48;;
51006;SDS011;37034;47.886;-3.904;2022-08-19T11:42:58;5.78;;;1.33;;
51006;SDS011;37034;47.886;-3.904;2022-08-19T11:45:25;7.35;;;1.52;;
51006;SDS011;37034;47.886;-3.904;2022-08-19T11:47:53;9.13;;;1.42;;
51006;SDS011;37034;47.886;-3.904;2022-08-19T11:50:19;2.15;;;0.75;;
51006;SDS011;37034;47.886;-3.904;2022-08-19T11:52:46;4.95;;;1.23;;
51006;SDS011;37034;47.886;-3.904;2022-08-19T11:55:14;3.58;;;1.27;;
51006;SDS011;37034;47.886;-3.904;2022-08-19T11:57:40;2.33;;;0.70;;
51006;SDS011;37034;47.886;-3.904;2022-08-19T12:00:07;2.25;;;0.80;;
51006;SDS011;37034;47.886;-3.904;2022-08-19T12:02:35;2.72;;;0.77;;
51006;SDS011;37034;47.886;-3.904;2022-08-19T12:05:01;1.75;;;0.50;;
51006;SDS011;37034;47.886;-3.904;2022-08-19T12:07:27;2.38;;;0.70;;
51006;SDS011;37034;47.886;-3.904;2022-08-19T12:09:55;2.70;;;0.73;;
51006;SDS011;37034;47.886;-3.904;2022-08-19T12:14:49;1.70;;;0.60;;
51006;SDS011;37034;47.886;-3.904;2022-08-19T12:17:21;1.35;;;0.40;;
51006;SDS011;37034;47.886;-3.904;2022-08-19T12:19:48;0.93;;;0.40;;
51006;SDS011;37034;47.886;-3.904;2022-08-19T12:22:13;1.15;;;0.45;;
51006;SDS011;37034;47.886;-3.904;2022-08-19T12:24:39;0.80;;;0.40;;
51006;SDS011;37034;47.886;-3.904;2022-08-19T12:27:05;1.92;;;0.40;;
51006;SDS011;37034;47.886;-3.904;2022-08-19T12:29:30;0.80;;;0.40;;
51006;SDS011;37034;47.886;-3.904;2022-08-19T12:31:57;0.75;;;0.47;;
51006;SDS011;37034;47.886;-3.904;2022-08-19T12:34:26;2.72;;;0.60;;
51006;SDS011;37034;47.886;-3.904;2022-08-19T12:36:55;0.40;;;0.40;;
51006;SDS011;37034;47.886;-3.904;2022-08-19T12:39:22;1.17;;;0.50;;
51006;SDS011;37034;47.886;-3.904;2022-08-19T12:44:14;2.47;;;0.70;;
51006;SDS011;37034;47.886;-3.904;2022-08-19T12:46:40;1.77;;;0.55;;
51006;SDS011;37034;47.886;-3.904;2022-08-19T12:49:06;1.05;;;0.52;;
51006;SDS011;37034;47.886;-3.904;2022-08-19T12:51:31;2.05;;;0.80;;
51006;SDS011;37034;47.886;-3.904;2022-08-19T12:53:57;1.40;;;0.60;;
51006;SDS011;37034;47.886;-3.904;2022-08-19T12:56:24;2.30;;;0.60;;
51006;SDS011;37034;47.886;-3.904;2022-08-19T12:58:50;3.53;;;0.60;;
51006;SDS011;37034;47.886;-3.904;2022-08-19T13:01:16;1.27;;;0.70;;
51006;SDS011;37034;47.886;-3.904;2022-08-19T13:03:44;0.90;;;0.52;;
51006;SDS011;37034;47.886;-3.904;2022-08-19T13:06:11;5.13;;;0.80;;
51006;SDS011;37034;47.886;-3.904;2022-08-19T13:08:37;1.30;;;0.70;;
51006;SDS011;37034;47.886;-3.904;2022-08-19T13:11:09;1.45;;;0.60;;
51006;SDS011;37034;47.886;-3.904;2022-08-19T13:13:37;1.75;;;0.80;;
51006;SDS011;37034;47.886;-3.904;2022-08-19T13:16:06;2.83;;;0.70;;
51006;SDS011;37034;47.886;-3.904;2022-08-19T13:18:33;0.88;;;0.50;;
51006;SDS011;37034;47.886;-3.904;2022-08-19T13:21:02;1.00;;;0.60;;
51006;SDS011;37034;47.886;-3.904;2022-08-19T13:23:30;1.15;;;0.60;;
51006;SDS011;37034;47.886;-3.904;2022-08-19T13:25:57;1.45;;;0.52;;
51006;SDS011;37034;47.886;-3.904;2022-08-19T13:28:24;0.65;;;0.50;;
51006;SDS011;37034;47.886;-3.904;2022-08-19T13:30:49;1.75;;;0.60;;
51006;SDS011;37034;47.886;-3.904;2022-08-19T13:33:33;4.10;;;0.70;;
51006;SDS011;37034;47.886;-3.904;2022-08-19T13:35:59;1.15;;;0.60;;
51006;SDS011;37034;47.886;-3.904;2022-08-19T13:38:26;1.77;;;0.70;;
51006;SDS011;37034;47.886;-3.904;2022-08-19T13:40:54;1.10;;;0.60;;
51006;SDS011;37034;47.886;-3.904;2022-08-19T13:43:21;1.73;;;0.73;;
51006;SDS011;37034;47.886;-3.904;2022-08-19T13:45:51;1.55;;;0.77;;
51006;SDS011;37034;47.886;-3.904;2022-08-19T13:48:21;1.85;;;0.75;;
51006;SDS011;37034;47.886;-3.904;2022-08-19T13:50:48;2.63;;;0.60;;
51006;SDS011;37034;47.886;-3.904;2022-08-19T13:53:14;2.17;;;0.60;;
51006;SDS011;37034;47.886;-3.904;2022-08-19T13:55:41;2.45;;;0.98;;
51006;SDS011;37034;47.886;-3.904;2022-08-19T13:58:08;2.25;;;0.88;;
51006;SDS011;37034;47.886;-3.904;2022-08-19T14:00:36;1.60;;;0.60;;
51006;SDS011;37034;47.886;-3.904;2022-08-19T14:03:07;4.10;;;0.90;;
51006;SDS011;37034;47.886;-3.904;2022-08-19T14:05:33;2.10;;;0.80;;
51006;SDS011;37034;47.886;-3.904;2022-08-19T14:07:58;2.72;;;0.80;;
51006;SDS011;37034;47.886;-3.904;2022-08-19T14:10:25;3.38;;;0.80;;
51006;SDS011;37034;47.886;-3.904;2022-08-19T14:12:53;1.92;;;0.80;;
51006;SDS011;37034;47.886;-3.904;2022-08-19T14:15:21;3.58;;;0.90;;
51006;SDS011;37034;47.886;-3.904;2022-08-19T14:17:48;3.67;;;1.30;;
51006;SDS011;37034;47.886;-3.904;2022-08-19T14:20:14;3.63;;;0.80;;
51006;SDS011;37034;47.886;-3.904;2022-08-19T14:22:41;3.08;;;0.80;;
51006;SDS011;37034;47.886;-3.904;2022-08-19T14:25:09;1.83;;;0.77;;
51006;SDS011;37034;47.886;-3.904;2022-08-19T14:27:37;7.63;;;1.10;;
51006;SDS011;37034;47.886;-3.904;2022-08-19T14:30:06;2.72;;;0.90;;
51006;SDS011;37034;47.886;-3.904;2022-08-19T14:32:33;4.78;;;1.00;;
51006;SDS011;37034;47.886;-3.904;2022-08-19T14:34:59;7.93;;;0.90;;
51006;SDS011;37034;47.886;-3.904;2022-08-19T14:37:26;3.30;;;0.90;;
51006;SDS011;37034;47.886;-3.904;2022-08-19T14:39:51;5.30;;;0.90;;
51006;SDS011;37034;47.886;-3.904;2022-08-19T14:44:44;3.15;;;0.95;;
51006;SDS011;37034;47.886;-3.904;2022-08-19T14:47:09;5.70;;;1.13;;
51006;SDS011;37034;47.886;-3.904;2022-08-19T14:49:35;3.70;;;1.10;;
51006;SDS011;37034;47.886;-3.904;2022-08-19T14:52:01;3.30;;;1.08;;
51006;SDS011;37034;47.886;-3.904;2022-08-19T14:54:28;3.45;;;1.02;;
51006;SDS011;37034;47.886;-3.904;2022-08-19T14:56:54;3.42;;;0.90;;
51006;SDS011;37034;47.886;-3.904;2022-08-19T14:59:20;5.10;;;1.38;;
51006;SDS011;37034;47.886;-3.904;2022-08-19T15:01:46;3.05;;;0.98;;
51006;SDS011;37034;47.886;-3.904;2022-08-19T15:04:11;4.00;;;1.00;;
51006;SDS011;37034;47.886;-3.904;2022-08-19T15:06:37;4.28;;;1.63;;
51006;SDS011;37034;47.886;-3.904;2022-08-19T15:11:29;3.63;;;1.15;;
51006;SDS011;37034;47.886;-3.904;2022-08-19T15:13:57;8.30;;;1.48;;
51006;SDS011;37034;47.886;-3.904;2022-08-19T15:16:24;3.35;;;1.00;;
51006;SDS011;37034;47.886;-3.904;2022-08-19T15:18:52;5.07;;;1.13;;
51006;SDS011;37034;47.886;-3.904;2022-08-19T15:21:20;4.75;;;1.10;;
51006;SDS011;37034;47.886;-3.904;2022-08-19T15:23:47;4.88;;;1.10;;